This is the latest recevied weather packets stored in our database for station/object EA4IAJ-12. If no packets are shown the sender has not sent any weather packets the latest 10 day(s).
| Time | Temp. | Humidity | Pressure | Rain* | Wind** | Luminosity | Snow |
|---|---|---|---|---|---|---|---|
| 1787781978 | 20.56° C | 50% | 1005.1 hPa | - | - | - | - |
| 1787781100 | 20.56° C | 48% | 1006 hPa | - | - | - | - |
| 1787780189 | 21.11° C | 47% | 1007.9 hPa | - | - | - | - |
| 1787779299 | 21.67° C | 46% | 1009.3 hPa | - | - | - | - |
| 1787778388 | 21.67° C | 45% | 1009.8 hPa | - | - | - | - |
| 1787777491 | 22.22° C | 44% | 1010.7 hPa | - | - | - | - |
| 1787776587 | 22.78° C | 44% | 1011.8 hPa | - | - | - | - |
| 1787774786 | 22.78° C | 43% | 1012.4 hPa | - | - | - | - |
| 1787772985 | 23.33° C | 41% | 1014 hPa | - | - | - | - |
| 1787772084 | 23.33° C | 41% | 1013.5 hPa | - | - | - | - |
| 1787769382 | 24.44° C | 39% | 1016.8 hPa | - | - | - | - |
| 1787768482 | 24.44° C | 38% | 1018.2 hPa | - | - | - | - |
| 1787767581 | 25° C | 38% | 1020 hPa | - | - | - | - |
| 1787766681 | 25.56° C | 37% | 1021.3 hPa | - | - | - | - |
| 1787765780 | 26.11° C | 37% | 1022.8 hPa | - | - | - | - |
| 1787763979 | 26.67° C | 36% | 1025.4 hPa | - | - | - | - |
| 1787763079 | 27.22° C | 36% | 1026.9 hPa | - | - | - | - |
| 1787762178 | 27.22° C | 35% | 1026.7 hPa | - | - | - | - |
| 1787761277 | 27.78° C | 35% | 1029 hPa | - | - | - | - |
| 1787760377 | 28.89° C | 35% | 1032.4 hPa | - | - | - | - |
| 1787759499 | 27.78° C | 34% | 1029.5 hPa | - | - | - | - |
| 1787758588 | 28.33° C | 34% | 1031.1 hPa | - | - | - | - |
| 1787756787 | 29.44° C | 34% | 1035 hPa | - | - | - | - |
| 1787754986 | 30.56° C | 34% | 1039.5 hPa | - | - | - | - |
| 1787753185 | 30° C | 35% | 1039.2 hPa | - | - | - | - |
* Rain since midnight (hover to see other rain measurements)
** Current wind speed in m/s (hover to see current wind gust speed)